Ride Results

Brymaroo (20-03-2010)
Ride distance: 80.0 km

Outcomes - Brymaroo (20-03-2010)
Division No. of Entries Retired / DNE Completed Withdrawn Ineligible V/O Percentage Completed
HW 12 - 9 - - 3 75.00%
MW 43 - 35 - - 8 81.40%
LW 30 - 24 1 - 5 80.00%
JN 13 - 11 - - 2 84.62%
Totals 98 - 79 1 - 18 80.61%
Results - Brymaroo (20-03-2010)
No. Rider Horse Place Time Leg Speeds Total
Km/Hr
H/R bpm
Heavyweight
179 Gregg Fields Dunwingeri Shahman 1 (BC) 5:20:00 17.7, 12.9 15.00 38, 40, 47 (Avg:43)
181 Niels Lochtenberg Matta Mia Safir 2 5:23:00 17.2, 13.0 14.86 36, 40, 47 (Avg:43)
150 Paul Lengronne Johroy Custom Made 3 5:27:00 16.1, 13.4 14.68 38, 42, 49 (Avg:45)
234 Peter Toft Banks Creek Te 4 6:06:00 13.1, 13.0 13.11 36, 42, 49 (Avg:45)
198 Maurice Gray Gydanska 5 6:28:00 13.1, 11.7 12.37 34, 49, 46 (Avg:47)
192 Ricky Petersen Ashraf Sparkling Polaris 5 6:28:00 13.4, 11.4 12.37 37, 44, 50 (Avg:47)
221 Greg Garred Performance Park Apollo 7 7:24:00 12.3, 9.5 10.81 33, 40, 53 (Avg:46)
169 Jaime Mansbridge Shannonwood Ezar 7 7:24:00 12.3, 9.5 10.81 39, 41, 44 (Avg:42)
223 Peter Spottswood Glenewan Dusk 7 7:24:00 12.3, 9.5 10.81 33, 39, 46 (Avg:42)
220 Gavin Bartlett Palmview Silver Elle Lame L2 0:00:00 12.8, 11.4 - 40, 39, 47 (Avg:43)
214 David Pembroke Agape SamuElla Australis Lame L2 0:00:00 12.6, 8.7 - 36, 36, 47 (Avg:41)
187 Scott Barker Saronet Phantom Lame L1 0:00:00 14.5 - 32, 50 (Avg:50)
Middleweight
197 Stephen Gray Kasbah Kid 1 (BC) 3:39:00 22.4, 21.4 21.92 37, 46, 60 (Avg:53)
200 Akhmed Pshunov Captain Creek Tall Boy 2 3:48:00 22.8, 19.5 21.05 45, 54, 59 (Avg:56)
148 Peter Pike Sundust Jack 3 4:58:00 21.8, 12.7 16.11 30, 41, 44 (Avg:42)
175 Penny Toft Centre Fold te 4 5:00:00 17.6, 14.6 16.00 36, 45, 49 (Avg:47)
178 Caroline Fitzgerald Lanamere Femmara 5 5:20:00 17.9, 12.9 15.00 35, 43, 49 (Avg:46)
170 Carmel Trevorrow Lanamere Nightmusic 5 5:20:00 17.9, 12.9 15.00 33, 47, 45 (Avg:46)
194 Karen Winkel Tonique 7 5:24:00 18.0, 12.5 14.81 29, 43, 43 (Avg:43)
157 Carolyn Strahan Georgia 8 6:02:00 15.8, 11.3 13.26 36, 41, 43 (Avg:42)
199 Jan Rohweder Charlie Chaplin 9 6:03:00 14.6, 12.0 13.22 34, 41, 44 (Avg:42)
149 Julie Kemp Aloha Sashar 10 6:06:00 14.0, 12.3 13.11 37, 38, 44 (Avg:41)
242 Bridget Nottle Moondarra Aragon 11 6:07:00 12.9, 13.1 13.08 38, 47, 52 (Avg:49)
215 Rosemary Hull Ejen Park Azira Rose 12 6:15:00 13.1, 12.4 12.80 29, 50, 41 (Avg:45)
245 David Cleland Lasca's Lyric 13 6:21:00 12.9, 12.3 12.60 39, 43, 48 (Avg:45)
189 Joy Craig Kynnum Park Winter Wind 13 6:21:00 13.1, 12.0 12.60 39, 41, 45 (Avg:43)
184 Adrian Brickley Duray Chime The Bells 15 6:25:00 13.3, 11.7 12.47 39, 45, 47 (Avg:46)
248 Debbie Edwards Agape Evezra 15 6:25:00 12.9, 12.0 12.47 37, 40, 52 (Avg:46)
233 Sally Summers Harry Potter 17 6:33:00 13.1, 11.4 12.21 39, 34, 45 (Avg:39)
232 Della Weier Kahshah 17 6:33:00 13.1, 11.4 12.21 35, 40, 43 (Avg:41)
219 Gerard Bou Splendacrest Superb 19 6:39:00 13.2, 11.0 12.03 37, 49, 48 (Avg:48)
243 Pierre DeWit Indiana Jones te 20 6:46:00 12.9, 10.8 11.82 34, 47, 45 (Avg:46)
228 Jackie Parsons Dunwingeri Nova 21 6:59:00 12.6, 10.4 11.46 38, 46, 50 (Avg:48)
209 Johann Willemse Alamos Zarcos 22 7:02:00 12.9, 10.1 11.37 39, 46, 52 (Avg:49)
231 Karen Fields Cameo Horizons 23 7:05:00 12.6, 10.2 11.29 46, 46, 45 (Avg:45)
171 Lorraine Ternouth Drumlin Mystic Moon 23 7:05:00 12.6, 10.2 11.29 40, 42, 40 (Avg:41)
235 Natashja Burton Abbeywood Romeo 25 7:13:00 12.0, 10.2 11.09 35, 43, 44 (Avg:43)
217 Angela Head Foxhaven Just in Time 25 7:13:00 12.0, 10.2 11.09 37, 48, 42 (Avg:45)
160 Danielle Cullen Matta Mia Kizil 27 7:22:00 12.6, 9.4 10.86 35, 41, 40 (Avg:40)
213 Chelsea Moore Mt Eerwah Silverado 27 7:22:00 12.7, 9.4 10.86 35, 41, 42 (Avg:41)
201 Frank Scadding Burralga Socrates 29 7:24:00 12.3, 9.5 10.81 44, 44, 45 (Avg:44)
250 Ann Raabe Nangamba Alisaar 30 7:27:00 12.8, 9.2 10.74 36, 41, 48 (Avg:44)
249 Tania Sanderson Dark Century 30 7:27:00 12.8, 9.2 10.74 36, 48, 40 (Avg:44)
204 Alice Fennah Brookleigh Brogan 32 7:45:00 12.5, 8.7 10.32 38, 41, 43 (Avg:42)
210 Peter Holmes Alamo Hunter's Moon 33 7:49:00 13.1, 8.3 10.23 38, 52, 52 (Avg:52)
168 Olga Bartlett Cingala Royalle 34 7:51:00 12.0, 8.8 10.19 36, 40, 48 (Avg:44)
239 Madeleine Fisher Duray Djarq 34 7:51:00 12.4, 8.6 10.19 36, 49, 49 (Avg:49)
177 Tammie Bell Esscort's True Confessions Lame L2 0:00:00 13.6, 10.3 - 39, 51, 52 (Avg:51)
164 Simone Krahnen Ardai Lame L2 0:00:00 17.0, 12.9 - 37, 44, 48 (Avg:46)
154 Robyn Pembroke Mt Eerwah Nikita Lame L2 0:00:00 12.6, 9.4 - 32, 34, 43 (Avg:38)
226 Lynne Drinkwater Portia Rose Lame L1 0:00:00 12.3 - 28, 46 (Avg:46)
238 Jackie Gilks Reid River Reflectshine Lame L1 0:00:00 23.3 - 34, 40 (Avg:40)
156 Ken Moir Cameo Helmzman Lame L1 0:00:00 16.1 - 32, 48 (Avg:48)
229 Lisa Sanchez Lisana Ghetto Booty Lame L1 0:00:00 11.5 - 37, 49 (Avg:49)
158 Wendy Smith Midu Jacelle Lame L1 0:00:00 15.8 - 38, 41 (Avg:41)
Lightweight
162 Maxine Leary Brookleigh Callista 1 (BC) 5:00:00 17.5, 14.7 16.00 36, 39, 49 (Avg:44)
180 Bobbi Lochtenberg Matta Mia Dayman 2 5:23:00 17.2, 13.0 14.86 38, 44, 49 (Avg:46)
159 Amanda Powell Alamo Minelli 3 5:24:00 18.0, 12.5 14.81 37, 44, 49 (Avg:46)
153 Christine Ablett Lindall Falen 4 6:03:00 14.6, 12.0 13.22 31, 40, 44 (Avg:42)
240 Amaya Thomas Winderella Lodge Sphinx 5 6:05:00 13.1, 13.1 13.15 38, 46, 42 (Avg:44)
151 Lisa Burgess Kholonial Amigo 6 6:06:00 16.2, 11.0 13.11 37, 46, 48 (Avg:47)
236 Jenna Arnett Samakaan 7 6:16:00 12.9, 12.5 12.77 38, 49, 59 (Avg:54)
188 Nicole Barker Hadji of Damascus 7 6:16:00 14.5, 11.3 12.77 32, 40, 44 (Avg:42)
224 Margaret Harvey Banbra Tamara 7 6:16:00 13.2, 12.3 12.77 30, 45, 50 (Avg:47)
244 Judith Mangels Rupert te 7 6:16:00 13.1, 12.4 12.77 37, 41, 43 (Avg:42)
247 Bec Miller Kazoo Park Bobby Boy 11 6:25:00 12.8, 12.1 12.47 43, 44, 45 (Avg:44)
196 Leigh Rich Leondon Maritz 12 6:27:00 13.5, 11.4 12.40 40, 51, 44 (Avg:47)
206 Sasha Laws-King Heathfield's Fire 13 6:37:00 12.9, 11.3 12.09 36, 44, 40 (Avg:42)
216 Clare Fleming Splendacrest Flamenco 14 6:39:00 13.2, 11.0 12.03 36, 41, 49 (Avg:45)
225 Karen Mendoza Lakeview Tizzabelle 15 6:42:00 12.9, 11.1 11.94 36, 44, 50 (Avg:47)
182 Sue Sutcliffe De Sharvell Sharkeem 15 6:42:00 12.9, 11.1 11.94 53, 45, 54 (Avg:49)
212 Sean Crew Linslea Park Sir Lancelot 17 7:22:00 12.7, 9.4 10.86 35, 41, 44 (Avg:42)
222 Hayley Murphy Apollo 17 7:22:00 12.6, 9.4 10.86 38, 43, 43 (Avg:43)
173 Cathy Herve Hilbrae Maxine 19 7:24:00 12.3, 9.5 10.81 44, 36, 42 (Avg:39)
230 Janelle Taylor Glenewan Scout 20 7:31:00 11.5, 9.8 10.64 34, 42, 46 (Avg:44)
237 Candice Gurtner Rodborough Cisko 21 7:32:00 11.0, 10.2 10.62 32, 49, 55 (Avg:52)
208 Elise Gough Brookleigh Diablo 22 7:45:00 12.6, 8.7 10.32 37, 40, 49 (Avg:44)
205 Lesley Page Shardell Desert Drifter 22 7:45:00 12.5, 8.7 10.32 38, 42, 47 (Avg:44)
185 Sue Jones El Castano Mirada 24 7:51:00 12.4, 8.6 10.19 37, 45, 42 (Avg:43)
186 Susan Kelman Jayhal Moonlight Lame L2 0:00:00 14.0, 10.4 - 38, 39, 43 (Avg:41)
190 Tanya Stoffel Hazeldean Shai Angel Lame L2 0:00:00 13.0, 11.1 - 34, 42, 36 (Avg:39)
183 Christine Christie Reg Lame L1 0:00:00 21.6 - 31, 45 (Avg:45)
241 Patrice Fenech Dangar Ima Colida Heart Rate L1 0:00:00 133.3 - 30, 56 (Avg:56)
203 Amy- leigh Field Aladdin Heart Rate L1 0:00:00 12.5 - 40, 67 (Avg:67)
152 Sonya Ryan Lindall Farvio Widthdrawn L1 0:00:00 - - 30, 39 (Avg:39)
Junior
155 David Anderson Jnr Ashwind 1 4:58:00 21.0, 13.0 16.11 30, 47, 47 (Avg:47)
176 Alexandra Toft Tora Karlaya 2 (BC) 4:59:00 17.6, 14.7 16.05 33, 47, 47 (Avg:47)
165 Erin Krahnen Rodborough Bey Abdul 3 5:27:00 17.0, 12.9 14.68 30, 36, 39 (Avg:37)
166 Colleen Krahnen Kalkadoon Viva 3 5:27:00 17.0, 12.9 14.68 29, 40, 44 (Avg:42)
167 Connor Krahnen Kalkadoon Shalom 3 5:27:00 17.0, 12.9 14.68 37, 44, 46 (Avg:45)
161 Steph Tulk Splendacrest Ulysses 6 6:03:00 15.8, 11.3 13.22 34, 40, 47 (Avg:43)
193 Wade Burgess Cameo Stormboy 7 6:06:00 16.2, 11.0 13.11 34, 41, 39 (Avg:40)
163 Timothy Sutcliffe Sahala Azure Rose 8 6:27:00 16.6, 9.8 12.40 35, 36, 44 (Avg:40)
195 Jake Gray Chazar Fire Nic Ice 9 6:28:00 13.4, 11.4 12.37 37, 40, 49 (Avg:44)
246 Bec Hall Candy 10 6:40:00 13.0, 11.1 12.00 41, 46, 48 (Avg:47)
227 Racheal Townsend Chingford Blaze Away 11 7:32:00 11.0, 10.2 10.62 35, 41, 43 (Avg:42)
211 Natasha Willemse Corvette Lame L2 0:00:00 13.1, 12.4 - 36, 50, 46 (Avg:48)
191 Jamie Green Azizi Lame L1 0:00:00 22.8 - 29, 46 (Avg:46)